Time;durP1;ratioP1;P1;durP2;ratioP2;P2;SDS_P1;SDS_P2;PMS_P1;PMS_P2;Temp;Humidity;BMP_temperature;BMP_pressure;BME280_temperature;BME280_humidity;BME280_pressure;Samples;Min_cycle;Max_cycle;Signal;HPM_P1;HPM_P2
2022/06/26 00:01:00;;;;;;;1999.90;999.90;;;18.90;99.90;;;;;;4956849;29;20178;-68
2022/06/26 00:03:29;;;;;;;1999.90;999.90;;;18.90;99.90;;;;;;4956913;28;20186;-69
2022/06/26 00:05:55;;;;;;;1999.90;999.90;;;18.90;99.90;;;;;;4956671;29;20822;-68
2022/06/26 00:08:21;;;;;;;1999.90;999.90;;;18.90;99.90;;;;;;4956491;29;20519;-68
2022/06/26 00:10:47;;;;;;;1999.90;999.90;;;18.90;99.90;;;;;;4956629;28;20982;-69
2022/06/26 00:13:14;;;;;;;1999.90;999.90;;;18.90;99.90;;;;;;4956679;29;20835;-68
2022/06/26 00:15:40;;;;;;;1999.90;999.90;;;18.80;99.90;;;;;;4956566;28;20399;-68
2022/06/26 00:18:06;;;;;;;1999.90;999.90;;;18.80;99.90;;;;;;4956216;29;20396;-69
2022/06/26 00:20:32;;;;;;;1999.90;999.90;;;18.70;99.90;;;;;;4956471;29;20892;-69
2022/06/26 00:22:58;;;;;;;1999.90;999.90;;;18.70;99.90;;;;;;4956569;29;20229;-68
2022/06/26 00:25:24;;;;;;;1999.90;999.90;;;18.70;99.90;;;;;;4956362;29;20945;-68
2022/06/26 00:27:49;;;;;;;1999.90;999.90;;;18.70;99.90;;;;;;4955989;28;20199;-68
2022/06/26 00:30:15;;;;;;;1999.90;999.90;;;18.80;99.90;;;;;;4956363;29;20411;-68
2022/06/26 00:32:41;;;;;;;1999.90;999.90;;;18.80;99.90;;;;;;4956152;29;20178;-68
2022/06/26 00:35:08;;;;;;;1999.90;999.90;;;18.80;99.90;;;;;;4956257;29;20417;-69
2022/06/26 00:37:34;;;;;;;1999.90;999.90;;;18.80;99.90;;;;;;4954980;28;20300;-68
2022/06/26 00:39:59;;;;;;;1999.90;999.90;;;18.70;99.90;;;;;;4956069;28;20443;-68
2022/06/26 00:42:25;;;;;;;1999.90;999.90;;;18.60;99.90;;;;;;4956105;29;20181;-68
2022/06/26 00:44:55;;;;;;;1999.90;999.90;;;18.60;99.90;;;;;;4956075;29;20637;-68
2022/06/26 00:47:22;;;;;;;1999.90;999.90;;;18.70;99.90;;;;;;4955852;29;20199;-68
2022/06/26 00:49:48;;;;;;;1999.90;999.90;;;18.70;99.90;;;;;;4955995;29;20504;-68
2022/06/26 00:52:15;;;;;;;1999.90;999.90;;;18.70;99.90;;;;;;4956070;28;20412;-69
2022/06/26 00:54:41;;;;;;;1999.90;999.90;;;18.70;99.90;;;;;;4955714;29;20464;-68
2022/06/26 00:57:07;;;;;;;1999.90;999.90;;;18.70;99.90;;;;;;4955499;29;20457;-68
2022/06/26 00:59:33;;;;;;;1999.90;999.90;;;18.80;99.90;;;;;;4955870;29;20388;-68
2022/06/26 01:01:59;;;;;;;1999.90;999.90;;;18.70;99.90;;;;;;4955701;29;20388;-68
2022/06/26 01:04:24;;;;;;;1999.90;999.90;;;18.70;99.90;;;;;;4955666;29;20236;-68
2022/06/26 01:06:51;;;;;;;1999.90;999.90;;;18.60;99.90;;;;;;4955316;29;20941;-69
2022/06/26 01:09:17;;;;;;;1999.90;999.90;;;18.60;99.90;;;;;;4955618;29;20173;-69
2022/06/26 01:11:44;;;;;;;1999.90;999.90;;;18.60;99.90;;;;;;4955499;29;20409;-68
2022/06/26 01:14:10;;;;;;;1999.90;999.90;;;18.60;99.90;;;;;;4955600;28;20970;-68
2022/06/26 01:16:38;;;;;;;1999.90;999.90;;;18.50;99.90;;;;;;4955343;28;20899;-68
2022/06/26 01:19:06;;;;;;;1999.90;999.90;;;18.50;99.90;;;;;;4955433;29;20405;-68
2022/06/26 01:21:32;;;;;;;1999.90;999.90;;;18.50;99.90;;;;;;4955323;29;20421;-68
2022/06/26 01:23:59;;;;;;;1999.90;999.90;;;18.40;99.90;;;;;;4955312;29;20388;-68
2022/06/26 01:26:25;;;;;;;1999.90;999.90;;;18.40;99.90;;;;;;4954994;28;20424;-68
2022/06/26 01:28:51;;;;;;;1999.90;999.90;;;18.30;99.90;;;;;;4955103;29;20432;-68
2022/06/26 01:31:18;;;;;;;1999.90;999.90;;;18.20;99.90;;;;;;4955247;29;20423;-68
2022/06/26 01:33:45;;;;;;;1999.90;999.90;;;18.20;99.90;;;;;;4955133;29;20452;-68
2022/06/26 01:36:10;;;;;;;1999.90;999.90;;;18.20;99.90;;;;;;4954781;29;20413;-68
2022/06/26 01:38:36;;;;;;;1999.90;999.90;;;18.20;99.90;;;;;;4953612;29;20998;-69
2022/06/26 01:41:02;;;;;;;1999.90;999.90;;;18.20;99.90;;;;;;4954912;29;20174;-68
2022/06/26 01:43:30;;;;;;;1999.90;999.90;;;18.20;99.90;;;;;;4954992;29;20540;-68
2022/06/26 01:45:57;;;;;;;1999.90;999.90;;;18.30;99.90;;;;;;4954774;28;20377;-68
2022/06/26 01:48:25;;;;;;;1999.90;999.90;;;18.30;99.90;;;;;;4954776;28;20472;-68
2022/06/26 01:50:52;;;;;;;1999.90;999.90;;;18.20;99.90;;;;;;4954793;29;20453;-68
2022/06/26 01:53:17;;;;;;;1999.90;999.90;;;18.20;99.90;;;;;;4954671;29;20459;-68
2022/06/26 01:55:43;;;;;;;1999.90;999.90;;;18.20;99.90;;;;;;4954618;29;20407;-68
2022/06/26 01:58:09;;;;;;;1999.90;999.90;;;18.20;99.90;;;;;;4954447;29;20216;-68
2022/06/26 02:00:39;;;;;;;1999.90;999.90;;;18.30;99.90;;;;;;4954679;29;20205;-68
2022/06/26 02:03:06;;;;;;;1999.90;999.90;;;18.20;99.90;;;;;;4954679;29;20710;-69
2022/06/26 02:05:31;;;;;;;1999.90;999.90;;;18.20;99.90;;;;;;4954482;29;20391;-68
2022/06/26 02:07:57;;;;;;;1999.90;999.90;;;18.30;99.90;;;;;;4954286;29;20940;-68
2022/06/26 02:15:53;;;;;;;1999.90;999.90;;;18.40;99.90;;;;;;4954649;29;20414;-68
2022/06/26 02:18:19;;;;;;;1999.90;999.90;;;18.40;99.90;;;;;;4954389;29;20779;-67
2022/06/26 02:20:45;;;;;;;1999.90;999.90;;;18.40;99.90;;;;;;4954355;29;20391;-67
2022/06/26 02:23:12;;;;;;;1999.90;999.90;;;18.40;99.90;;;;;;4954362;29;20435;-67
2022/06/26 02:25:38;;;;;;;1999.90;999.90;;;18.40;99.90;;;;;;4954229;29;20420;-67
2022/06/26 02:28:04;;;;;;;1999.90;999.90;;;18.40;99.90;;;;;;4953980;29;20487;-67
2022/06/26 02:30:30;;;;;;;1999.90;999.90;;;18.40;99.90;;;;;;4954225;29;20177;-67
2022/06/26 02:32:56;;;;;;;1999.90;999.90;;;18.40;99.90;;;;;;4954134;29;20452;-67
2022/06/26 02:35:23;;;;;;;1999.90;999.90;;;18.40;99.90;;;;;;4954334;28;20911;-67
2022/06/26 02:37:49;;;;;;;1999.90;999.90;;;18.50;99.90;;;;;;4953666;29;21065;-67
2022/06/26 02:40:15;;;;;;;1999.90;999.90;;;18.40;99.90;;;;;;4954052;29;20537;-68
2022/06/26 02:42:41;;;;;;;1999.90;999.90;;;18.40;99.90;;;;;;4954100;29;20886;-69
2022/06/26 02:45:07;;;;;;;1999.90;999.90;;;18.20;99.90;;;;;;4953957;28;20172;-70
2022/06/26 02:47:33;;;;;;;1999.90;999.90;;;18.30;99.90;;;;;;4953884;28;20229;-70
2022/06/26 02:49:58;;;;;;;1999.90;999.90;;;18.20;99.90;;;;;;4953988;29;20471;-67
2022/06/26 02:52:24;;;;;;;1999.90;999.90;;;18.30;99.90;;;;;;4953927;29;20875;-66
2022/06/26 02:54:50;;;;;;;1999.90;999.90;;;18.30;99.90;;;;;;4953856;29;20209;-66
2022/06/26 02:57:16;;;;;;;1999.90;999.90;;;18.40;99.90;;;;;;4953535;28;20670;-67
2022/06/26 02:59:42;;;;;;;1999.90;999.90;;;18.40;99.90;;;;;;4956644;28;20895;-67
2022/06/26 03:02:08;;;;;;;1999.90;999.90;;;18.30;99.90;;;;;;4960281;29;20399;-67
2022/06/26 03:04:33;;;;;;;1999.90;999.90;;;18.30;99.90;;;;;;4960428;28;20518;-68
2022/06/26 03:06:59;;;;;;;1999.90;999.90;;;18.30;99.90;;;;;;4959894;28;20462;-70
2022/06/26 03:09:25;;;;;;;1999.90;999.90;;;18.30;99.90;;;;;;4960210;29;20662;-67
2022/06/26 03:11:50;;;;;;;1999.90;999.90;;;18.30;99.90;;;;;;4960179;29;20181;-67
2022/06/26 03:14:16;;;;;;;1999.90;999.90;;;18.30;99.90;;;;;;4960061;29;20193;-67
2022/06/26 03:16:41;;;;;;;1999.90;999.90;;;18.30;99.90;;;;;;4960019;28;20232;-69
2022/06/26 03:19:07;;;;;;;1999.90;999.90;;;18.20;99.90;;;;;;4960109;29;20192;-66
2022/06/26 03:21:33;;;;;;;1999.90;999.90;;;18.10;99.90;;;;;;4960205;29;20539;-67
2022/06/26 03:24:01;;;;;;;1999.90;999.90;;;18.10;99.90;;;;;;4960046;29;20656;-66
2022/06/26 03:26:35;;;;;;;1999.90;999.90;;;18.00;99.90;;;;;;4959782;28;20172;-67
2022/06/26 03:29:02;;;;;;;1999.90;999.90;;;18.00;99.90;;;;;;4959952;29;20437;-67
2022/06/26 03:31:28;;;;;;;1999.90;999.90;;;17.90;99.90;;;;;;4959974;29;20443;-67
2022/06/26 03:33:55;;;;;;;1999.90;999.90;;;17.90;99.90;;;;;;4959864;28;20575;-70
2022/06/26 03:36:22;;;;;;;1999.90;999.90;;;17.90;99.90;;;;;;4959678;28;20978;-67
2022/06/26 03:38:48;;;;;;;1999.90;999.90;;;17.80;99.90;;;;;;4959717;29;20533;-67
2022/06/26 03:41:14;;;;;;;1999.90;999.90;;;17.80;99.90;;;;;;4959842;29;20406;-70
2022/06/26 03:43:40;;;;;;;1999.90;999.90;;;17.80;99.90;;;;;;4959965;29;20412;-68
2022/06/26 03:46:06;;;;;;;1999.90;999.90;;;17.80;99.90;;;;;;4959914;29;20240;-68
2022/06/26 03:48:32;;;;;;;1999.90;999.90;;;17.70;99.90;;;;;;4984943;23;20472;-70
2022/06/26 03:50:58;;;;;;;1999.90;999.90;;;17.80;99.90;;;;;;5018335;28;20474;-71
2022/06/26 03:53:24;;;;;;;1999.90;999.90;;;17.80;99.90;;;;;;5019163;28;20927;-70
2022/06/26 03:55:50;;;;;;;1999.90;999.90;;;17.80;99.90;;;;;;5019011;28;20163;-70
2022/06/26 03:58:15;;;;;;;1999.90;999.90;;;17.80;99.90;;;;;;5018142;28;20874;-70
2022/06/26 04:00:41;;;;;;;1999.90;999.90;;;17.80;99.90;;;;;;5018214;28;20488;-70
2022/06/26 04:03:08;;;;;;;1999.90;999.90;;;17.80;99.90;;;;;;5018189;28;20167;-70
2022/06/26 04:05:35;;;;;;;1999.90;999.90;;;17.80;99.90;;;;;;5018254;28;20550;-69
2022/06/26 04:08:00;;;;;;;1999.90;999.90;;;17.80;99.90;;;;;;5017831;28;20771;-70
2022/06/26 04:10:27;;;;;;;1999.90;999.90;;;17.80;99.90;;;;;;5017062;28;20404;-69
2022/06/26 04:12:52;;;;;;;1999.90;999.90;;;17.70;99.90;;;;;;5014334;28;20228;-70
2022/06/26 04:15:18;;;;;;;1999.90;999.90;;;17.70;99.90;;;;;;5015045;28;20405;-70
2022/06/26 04:17:44;;;;;;;1999.90;999.90;;;17.70;99.90;;;;;;5014757;28;20580;-70
2022/06/26 04:20:10;;;;;;;1999.90;999.90;;;17.70;99.90;;;;;;5014831;28;20190;-69
2022/06/26 04:22:36;;;;;;;1999.90;999.90;;;17.70;99.90;;;;;;5014845;28;20264;-70
2022/06/26 04:25:03;;;;;;;1999.90;999.90;;;17.60;99.90;;;;;;5014817;28;20494;-70
2022/06/26 04:27:29;;;;;;;1999.90;999.90;;;17.70;99.90;;;;;;5014482;28;20180;-70
2022/06/26 04:29:54;;;;;;;1999.90;999.90;;;17.70;99.90;;;;;;5014851;28;20931;-70
2022/06/26 04:32:20;;;;;;;1999.90;999.90;;;17.70;99.90;;;;;;5014694;28;20230;-70
2022/06/26 04:34:45;;;;;;;1999.90;999.90;;;17.80;99.90;;;;;;5014589;28;20289;-68
2022/06/26 04:37:11;;;;;;;1999.90;999.90;;;17.70;99.90;;;;;;5014405;28;20164;-70
2022/06/26 04:39:36;;;;;;;1999.90;999.90;;;17.80;99.90;;;;;;5014482;28;20182;-70
2022/06/26 04:42:02;;;;;;;1999.90;999.90;;;17.70;99.90;;;;;;5014477;28;20213;-69
2022/06/26 04:44:28;;;;;;;1999.90;999.90;;;17.70;99.90;;;;;;5014468;28;20174;-69
2022/06/26 04:46:53;;;;;;;1999.90;999.90;;;17.70;99.90;;;;;;5014109;28;20185;-69
2022/06/26 04:49:20;;;;;;;1999.90;999.90;;;17.60;99.90;;;;;;5014334;28;20213;-70
2022/06/26 04:51:45;;;;;;;1999.90;999.90;;;17.50;99.90;;;;;;5014405;28;20170;-69
2022/06/26 04:54:11;;;;;;;1999.90;999.90;;;17.50;99.90;;;;;;5014195;28;20540;-70
2022/06/26 04:56:38;;;;;;;1999.90;999.90;;;17.40;99.90;;;;;;5014130;28;20199;-70
2022/06/26 04:59:04;;;;;;;1999.90;999.90;;;17.40;99.90;;;;;;5014315;28;20799;-70
2022/06/26 05:01:31;;;;;;;1999.90;999.90;;;17.40;99.90;;;;;;5014263;28;20826;-69
2022/06/26 05:03:57;;;;;;;1999.90;999.90;;;17.40;99.90;;;;;;5014054;28;20414;-69
2022/06/26 05:06:23;;;;;;;1999.90;999.90;;;17.50;99.90;;;;;;5013752;28;20385;-69
2022/06/26 05:08:48;;;;;;;1999.90;999.90;;;17.50;99.90;;;;;;5013919;28;20434;-70
2022/06/26 05:11:14;;;;;;;1999.90;999.90;;;17.60;99.90;;;;;;5014017;28;20198;-69
2022/06/26 05:13:40;;;;;;;1999.90;999.90;;;17.80;99.90;;;;;;5013883;28;20580;-70
2022/06/26 05:16:06;;;;;;;1999.90;999.90;;;17.90;99.90;;;;;;5013627;28;20173;-70
2022/06/26 05:18:32;;;;;;;1999.90;999.90;;;18.00;99.90;;;;;;5013765;28;20430;-69
2022/06/26 05:20:58;;;;;;;1999.90;999.90;;;18.10;99.90;;;;;;5013785;28;20416;-67
2022/06/26 05:23:27;;;;;;;1999.90;999.90;;;18.10;99.90;;;;;;5013473;28;20232;-68
2022/06/26 05:25:53;;;;;;;1999.90;999.90;;;18.00;99.90;;;;;;5013482;28;20405;-69
2022/06/26 05:28:19;;;;;;;1999.90;999.90;;;18.10;99.90;;;;;;5013504;28;20430;-68
2022/06/26 05:30:44;;;;;;;1999.90;999.90;;;18.00;99.90;;;;;;5013538;28;20178;-67
2022/06/26 05:33:10;;;;;;;1999.90;999.90;;;17.90;99.90;;;;;;5013404;28;20474;-68
2022/06/26 05:35:36;;;;;;;1999.90;999.90;;;17.90;99.90;;;;;;5013486;28;20167;-68
2022/06/26 05:38:02;;;;;;;1999.90;999.90;;;17.80;99.90;;;;;;5013104;28;20403;-68
2022/06/26 05:40:28;;;;;;;1999.90;999.90;;;17.80;99.90;;;;;;5013425;28;20396;-68
2022/06/26 05:42:55;;;;;;;1999.90;999.90;;;17.80;99.90;;;;;;5012050;28;20267;-68
2022/06/26 05:45:21;;;;;;;1999.90;999.90;;;17.90;99.90;;;;;;5013311;28;20997;-68
2022/06/26 05:47:46;;;;;;;1999.90;999.90;;;17.90;99.90;;;;;;5012908;28;20407;-68
2022/06/26 05:50:12;;;;;;;1999.90;999.90;;;18.00;99.90;;;;;;5013042;28;20207;-68
2022/06/26 05:52:38;;;;;;;1999.90;999.90;;;18.10;99.90;;;;;;5013108;28;20169;-68
2022/06/26 05:55:04;;;;;;;1999.90;999.90;;;18.00;99.90;;;;;;5013149;28;20255;-69
2022/06/26 05:57:30;;;;;;;1999.90;999.90;;;18.10;99.90;;;;;;5013034;28;20176;-69
2022/06/26 05:59:56;;;;;;;1999.90;999.90;;;18.00;99.90;;;;;;5013137;28;20437;-69
2022/06/26 06:02:21;;;;;;;1999.90;999.90;;;18.00;99.90;;;;;;5013155;28;20402;-70
2022/06/26 06:04:47;;;;;;;1999.90;999.90;;;18.10;99.90;;;;;;5012960;28;20168;-70
2022/06/26 06:07:12;;;;;;;1999.90;999.90;;;18.20;99.90;;;;;;5012639;28;20259;-70
2022/06/26 06:09:38;;;;;;;1999.90;999.90;;;18.30;99.90;;;;;;5012837;28;20195;-69
2022/06/26 06:12:04;;;;;;;1999.90;999.90;;;18.40;99.90;;;;;;5012869;28;20168;-68
2022/06/26 06:14:30;;;;;;;1999.90;999.90;;;18.50;99.90;;;;;;5012767;28;20618;-68
2022/06/26 06:16:56;;;;;;;1999.90;999.90;;;18.60;99.90;;;;;;5012434;28;20405;-69
2022/06/26 06:19:21;;;;;;;1999.90;999.90;;;18.80;99.90;;;;;;5012662;28;20418;-70
2022/06/26 06:21:47;;;;;;;1999.90;999.90;;;18.90;99.90;;;;;;5012683;28;20186;-70
2022/06/26 06:24:12;;;;;;;1999.90;999.90;;;19.10;99.90;;;;;;5012772;28;20211;-70
2022/06/26 06:26:38;;;;;;;1999.90;999.90;;;19.20;99.90;;;;;;5012401;28;20187;-70
2022/06/26 06:29:04;;;;;;;1999.90;999.90;;;19.30;99.90;;;;;;5012531;28;20192;-70
2022/06/26 06:31:30;;;;;;;1999.90;999.90;;;19.30;99.90;;;;;;5012443;28;20541;-69
2022/06/26 06:33:55;;;;;;;1999.90;999.90;;;19.30;99.90;;;;;;5011201;28;20705;-70
2022/06/26 06:36:21;;;;;;;1999.90;999.90;;;19.20;99.90;;;;;;5012180;28;20171;-70
2022/06/26 06:38:47;;;;;;;1999.90;999.90;;;19.20;99.90;;;;;;5012427;28;20188;-70
2022/06/26 06:41:12;;;;;;;1999.90;999.90;;;19.30;99.90;;;;;;5012382;28;20222;-70
2022/06/26 06:43:38;;;;;;;1999.90;999.90;;;19.30;99.90;;;;;;5012472;28;20177;-70
2022/06/26 06:46:04;;;;;;;1999.90;999.90;;;19.40;99.90;;;;;;5012174;28;20179;-70
2022/06/26 06:48:30;;;;;;;1999.90;999.90;;;19.50;99.90;;;;;;5012074;28;20208;-70
2022/06/26 06:50:55;;;;;;;1999.90;999.90;;;19.70;99.90;;;;;;5012239;28;20356;-70
2022/06/26 06:53:21;;;;;;;1999.90;999.90;;;19.90;99.90;;;;;;5012198;28;20684;-70
2022/06/26 06:55:47;;;;;;;1999.90;999.90;;;20.00;99.90;;;;;;5012207;28;20168;-71
2022/06/26 06:58:13;;;;;;;1999.90;999.90;;;20.00;99.90;;;;;;5011890;28;20165;-69
2022/06/26 07:00:39;;;;;;;1999.90;999.90;;;20.10;99.90;;;;;;5012257;28;20465;-68
2022/06/26 07:03:05;;;;;;;1999.90;999.90;;;20.20;99.90;;;;;;5012152;28;20196;-69
2022/06/26 07:05:32;;;;;;;1999.90;999.90;;;20.50;99.90;;;;;;5012155;28;20731;-70
2022/06/26 07:07:59;;;;;;;1999.90;999.90;;;20.60;99.90;;;;;;5011805;28;20391;-71
2022/06/26 07:10:24;;;;;;;1999.90;999.90;;;20.60;99.90;;;;;;5012349;28;20400;-70
2022/06/26 07:12:55;;;;;;;1999.90;999.90;;;20.70;99.90;;;;;;5011955;28;20466;-71
2022/06/26 07:15:21;;;;;;;1999.90;999.90;;;20.70;99.90;;;;;;5012030;28;20215;-70
2022/06/26 07:17:47;;;;;;;1999.90;999.90;;;20.70;99.90;;;;;;5011688;28;20877;-70
2022/06/26 07:20:12;;;;;;;1999.90;999.90;;;20.80;99.90;;;;;;5011949;28;20290;-71
2022/06/26 07:22:38;;;;;;;1999.90;999.90;;;20.70;99.90;;;;;;5012163;28;20503;-70
2022/06/26 07:25:04;;;;;;;1999.90;999.90;;;20.90;99.90;;;;;;5011977;28;20200;-70
2022/06/26 07:27:29;;;;;;;1999.90;999.90;;;20.90;99.90;;;;;;5011728;28;20166;-69
2022/06/26 07:29:55;;;;;;;1999.90;999.90;;;21.10;99.90;;;;;;5011842;28;20433;-70
2022/06/26 07:32:21;;;;;;;1999.90;999.90;;;21.10;99.90;;;;;;5010378;28;20253;-70
2022/06/26 07:34:46;;;;;;;1999.90;999.90;;;21.20;99.90;;;;;;4997237;28;20210;-70
2022/06/26 07:37:12;;;;;;;1999.90;999.90;;;21.30;99.90;;;;;;5009942;28;20186;-69
2022/06/26 07:39:37;;;;;;;1999.90;999.90;;;21.30;99.90;;;;;;5011801;28;20210;-70
2022/06/26 07:42:04;;;;;;;1999.90;999.90;;;21.40;99.90;;;;;;5011817;28;20170;-70
2022/06/26 07:44:30;;;;;;;1999.90;999.90;;;21.50;99.90;;;;;;5011906;28;20166;-71
2022/06/26 07:46:57;;;;;;;1999.90;999.90;;;21.60;99.90;;;;;;5014472;28;20390;-71
2022/06/26 07:49:23;;;;;;;1999.90;999.90;;;21.70;99.90;;;;;;5015301;28;20602;-70
2022/06/26 07:51:48;;;;;;;1999.90;999.90;;;21.80;99.90;;;;;;5015423;28;20411;-70
2022/06/26 07:54:14;;;;;;;1999.90;999.90;;;21.60;99.90;;;;;;5015292;28;20466;-70
2022/06/26 07:56:40;;;;;;;1999.90;999.90;;;21.60;99.90;;;;;;5015084;28;20249;-70
2022/06/26 07:59:05;;;;;;;1999.90;999.90;;;21.40;99.90;;;;;;5015268;28;20210;-70
2022/06/26 08:01:31;;;;;;;1999.90;999.90;;;21.30;99.90;;;;;;5015229;28;20170;-70
2022/06/26 08:03:57;;;;;;;1999.90;999.90;;;21.20;99.90;;;;;;5015145;28;20705;-69
2022/06/26 08:06:22;;;;;;;1999.90;999.90;;;21.20;99.90;;;;;;5015056;28;20178;-70
2022/06/26 08:08:48;;;;;;;1999.90;999.90;;;21.30;99.90;;;;;;5015077;28;20633;-70
2022/06/26 08:11:14;;;;;;;1999.90;999.90;;;21.30;99.90;;;;;;5014953;28;20177;-71
2022/06/26 08:13:40;;;;;;;1999.90;999.90;;;21.50;99.90;;;;;;5013153;28;20194;-69
2022/06/26 08:16:05;;;;;;;1999.90;999.90;;;21.60;99.90;;;;;;5013519;28;20194;-69
2022/06/26 08:18:31;;;;;;;1999.90;999.90;;;21.60;99.90;;;;;;5014053;28;20186;-67
2022/06/26 08:20:56;;;;;;;1999.90;999.90;;;21.60;99.90;;;;;;5014589;28;20207;-69
2022/06/26 08:23:22;;;;;;;1999.90;999.90;;;21.40;99.90;;;;;;5014389;28;20928;-69
2022/06/26 08:25:48;;;;;;;1999.90;999.90;;;21.20;99.90;;;;;;5014256;28;20245;-70
2022/06/26 08:28:13;;;;;;;1999.90;999.90;;;21.20;99.90;;;;;;5014083;28;20174;-69
2022/06/26 08:30:39;;;;;;;1999.90;999.90;;;21.30;99.90;;;;;;5014184;28;20639;-69
2022/06/26 08:33:05;;;;;;;1999.90;999.90;;;21.30;99.90;;;;;;5014181;28;20193;-69
2022/06/26 08:35:31;;;;;;;1999.90;999.90;;;21.20;99.90;;;;;;5014170;28;20171;-70
2022/06/26 08:37:57;;;;;;;1999.90;999.90;;;21.20;99.90;;;;;;5013870;28;20409;-69
2022/06/26 08:40:23;;;;;;;1999.90;999.90;;;21.30;99.90;;;;;;5014161;28;20185;-70
2022/06/26 08:42:52;;;;;;;1999.90;999.90;;;21.50;99.90;;;;;;5014236;28;20875;-69
2022/06/26 08:45:20;;;;;;;1999.90;999.90;;;21.50;99.90;;;;;;5013931;28;20381;-69
2022/06/26 08:47:49;;;;;;;1999.90;999.90;;;21.70;99.90;;;;;;5013963;28;20435;-70
2022/06/26 08:50:17;;;;;;;1999.90;999.90;;;21.90;99.90;;;;;;5013821;28;20420;-69
2022/06/26 08:52:43;;;;;;;1999.90;999.90;;;22.10;99.90;;;;;;5013985;28;20416;-69
2022/06/26 08:55:10;;;;;;;1999.90;999.90;;;22.30;99.90;;;;;;5010985;28;20436;-69
2022/06/26 08:57:36;;;;;;;1999.90;999.90;;;22.50;99.90;;;;;;5012496;28;20382;-69
2022/06/26 09:00:04;;;;;;;1999.90;999.90;;;22.80;99.90;;;;;;5013250;28;20467;-70
2022/06/26 09:02:30;;;;;;;1999.90;999.90;;;22.70;99.90;;;;;;5013051;28;20414;-70
2022/06/26 09:04:56;;;;;;;1999.90;999.90;;;22.80;99.90;;;;;;5013494;28;20431;-68
2022/06/26 09:07:22;;;;;;;1999.90;999.90;;;22.90;99.90;;;;;;5013133;28;20176;-68
2022/06/26 09:09:48;;;;;;;1999.90;999.90;;;23.10;99.90;;;;;;5012688;28;20398;-69
2022/06/26 09:12:13;;;;;;;1999.90;999.90;;;23.10;99.90;;;;;;5013222;28;20390;-67
2022/06/26 09:14:39;;;;;;;1999.90;999.90;;;23.10;99.90;;;;;;5013002;28;20287;-68
2022/06/26 09:17:05;;;;;;;1999.90;999.90;;;22.90;99.90;;;;;;5012672;28;20203;-70
2022/06/26 09:19:43;;;;;;;1999.90;999.90;;;22.80;99.90;;;;;;5012901;28;20184;-70
2022/06/26 09:22:14;;;;;;;1999.90;999.90;;;23.00;99.90;;;;;;5012131;28;20160;-69
2022/06/26 09:24:50;;;;;;;1999.90;999.90;;;23.20;99.90;;;;;;5012833;28;20415;-69
2022/06/26 09:27:16;;;;;;;1999.90;999.90;;;23.20;99.90;;;;;;5012832;28;20384;-69
2022/06/26 09:29:54;;;;;;;1999.90;999.90;;;23.10;99.90;;;;;;5012995;28;20462;-69
2022/06/26 09:32:21;;;;;;;1999.90;999.90;;;23.00;99.90;;;;;;5012872;28;20734;-68
2022/06/26 09:34:52;;;;;;;1999.90;999.90;;;22.80;99.90;;;;;;5011602;28;20516;-70
2022/06/26 09:37:23;;;;;;;1999.90;999.90;;;22.90;99.90;;;;;;5012911;28;20471;-69
2022/06/26 09:39:48;;;;;;;1999.90;999.90;;;23.10;99.90;;;;;;5012566;28;20420;-69
2022/06/26 09:42:17;;;;;;;1999.90;999.90;;;23.20;99.90;;;;;;5012851;28;20752;-69
2022/06/26 09:44:49;;;;;;;1999.90;999.90;;;23.30;99.90;;;;;;5012579;28;20192;-70
2022/06/26 09:47:21;;;;;;;1999.90;999.90;;;23.50;99.90;;;;;;5012418;28;20847;-69
2022/06/26 09:49:51;;;;;;;1999.90;999.90;;;23.60;99.90;;;;;;5012442;28;20458;-70
2022/06/26 09:52:17;;;;;;;1999.90;999.90;;;23.60;99.90;;;;;;5012537;28;20828;-69
2022/06/26 09:54:43;;;;;;;1999.90;999.90;;;23.70;99.90;;;;;;5012409;28;20550;-69
2022/06/26 09:57:09;;;;;;;1999.90;999.90;;;23.90;99.90;;;;;;5012437;28;20405;-69
2022/06/26 09:59:35;;;;;;;1999.90;999.90;;;24.00;99.90;;;;;;5012353;28;20434;-69
2022/06/26 10:07:32;;;;;;;1999.90;999.90;;;23.60;99.90;;;;;;5012078;28;20826;-69
2022/06/26 10:09:58;;;;;;;1999.90;999.90;;;23.50;99.90;;;;;;5011207;28;20425;-69
2022/06/26 10:12:24;;;;;;;1999.90;999.90;;;23.60;99.90;;;;;;5012284;28;20412;-69
2022/06/26 10:14:53;;;;;;;1999.90;999.90;;;23.70;99.90;;;;;;5012047;28;20912;-72
2022/06/26 10:17:47;;;;;;;1999.90;999.90;;;23.60;99.90;;;;;;5012018;28;20824;-70
2022/06/26 10:20:18;;;;;;;1999.90;999.90;;;23.60;99.90;;;;;;5011848;28;20496;-70
2022/06/26 10:22:45;;;;;;;1999.90;999.90;;;23.70;99.90;;;;;;5012171;28;20746;-70
2022/06/26 10:25:28;;;;;;;1999.90;999.90;;;23.70;99.90;;;;;;5009962;28;20394;-68
2022/06/26 10:27:54;;;;;;;1999.90;999.90;;;23.90;99.90;;;;;;5011860;28;20409;-70
2022/06/26 10:30:23;;;;;;;1999.90;999.90;;;23.80;99.90;;;;;;5011664;28;20399;-70
2022/06/26 10:33:14;;;;;;;1999.90;999.90;;;23.60;99.90;;;;;;5011301;28;20410;-69
2022/06/26 10:35:48;;;;;;;1999.90;999.90;;;23.40;99.90;;;;;;5011752;28;20386;-70
2022/06/26 10:38:19;;;;;;;1999.90;999.90;;;23.10;99.90;;;;;;5011466;28;20431;-70
2022/06/26 10:43:43;;;;;;;1999.90;999.90;;;22.90;99.90;;;;;;5011987;28;20406;-70
2022/06/26 10:46:11;;;;;;;1999.90;999.90;;;22.80;99.90;;;;;;5010756;28;20405;-70
2022/06/26 10:48:37;;;;;;;1999.90;999.90;;;22.40;99.90;;;;;;5011328;28;20466;-70
2022/06/26 10:51:03;;;;;;;1999.90;999.90;;;22.40;99.90;;;;;;5011643;28;20402;-71
2022/06/26 10:53:37;;;;;;;1999.90;999.90;;;22.40;99.90;;;;;;5011216;28;20672;-71
2022/06/26 10:56:05;;;;;;;1999.90;999.90;;;22.30;99.90;;;;;;5011409;28;20249;-71
2022/06/26 10:58:35;;;;;;;1999.90;999.90;;;22.30;99.90;;;;;;5011447;28;20400;-69
2022/06/26 11:01:04;;;;;;;1999.90;999.90;;;22.20;99.90;;;;;;5011197;28;20376;-69
2022/06/26 11:03:31;;;;;;;1999.90;999.90;;;22.20;99.90;;;;;;5011471;28;20384;-70
2022/06/26 11:06:08;;;;;;;1999.90;999.90;;;22.20;99.90;;;;;;5011248;28;20404;-70
2022/06/26 11:08:35;;;;;;;1999.90;999.90;;;22.00;99.90;;;;;;5011040;28;20767;-70
2022/06/26 11:11:05;;;;;;;1999.90;999.90;;;21.80;99.90;;;;;;5011364;28;20384;-70
2022/06/26 11:13:32;;;;;;;1999.90;999.90;;;21.70;99.90;;;;;;5011307;28;20964;-70
2022/06/26 11:15:58;;;;;;;1999.90;999.90;;;21.60;99.90;;;;;;5010811;28;20903;-70
2022/06/26 11:18:23;;;;;;;1999.90;999.90;;;21.50;99.90;;;;;;5011482;28;21033;-69
2022/06/26 11:20:53;;;;;;;1999.90;999.90;;;21.50;99.90;;;;;;5012799;28;20546;-70
2022/06/26 11:23:25;;;;;;;1999.90;999.90;;;21.30;99.90;;;;;;5015079;28;20174;-70
2022/06/26 11:25:58;;;;;;;1999.90;999.90;;;21.20;99.90;;;;;;5015062;28;20382;-70
2022/06/26 11:28:40;;;;;;;1999.90;999.90;;;21.30;99.90;;;;;;5015277;28;20420;-70
2022/06/26 11:31:09;;;;;;;1999.90;999.90;;;21.20;99.90;;;;;;5014690;28;20383;-70
2022/06/26 11:33:37;;;;;;;1999.90;999.90;;;21.00;99.90;;;;;;5015123;28;20556;-70
2022/06/26 11:36:10;;;;;;;1999.90;999.90;;;20.80;99.90;;;;;;5014904;28;20410;-70
2022/06/26 11:38:36;;;;;;;1999.90;999.90;;;20.80;99.90;;;;;;5014515;28;20481;-70
2022/06/26 11:41:07;;;;;;;1999.90;999.90;;;20.80;99.90;;;;;;5014879;28;20474;-70
2022/06/26 11:43:34;;;;;;;1999.90;999.90;;;20.90;99.90;;;;;;5015125;28;20405;-69
2022/06/26 11:46:01;;;;;;;1999.90;999.90;;;21.00;99.90;;;;;;5014109;28;20415;-70
2022/06/26 11:48:27;;;;;;;1999.90;999.90;;;21.00;99.90;;;;;;5014815;28;20436;-69
2022/06/26 11:50:55;;;;;;;1999.90;999.90;;;21.00;99.90;;;;;;5014715;28;20471;-70
2022/06/26 11:53:30;;;;;;;1999.90;999.90;;;21.10;99.90;;;;;;5014305;28;20239;-69
2022/06/26 11:55:59;;;;;;;1999.90;999.90;;;21.20;99.90;;;;;;5014706;28;20388;-70
2022/06/26 11:58:30;;;;;;;1999.90;999.90;;;21.20;99.90;;;;;;5014677;28;20400;-69
2022/06/26 12:01:11;;;;;;;1999.90;999.90;;;21.30;99.90;;;;;;5014173;28;20469;-70
2022/06/26 12:03:43;;;;;;;1999.90;999.90;;;21.30;99.90;;;;;;5014635;28;20413;-69
2022/06/26 12:06:09;;;;;;;1999.90;999.90;;;21.20;99.90;;;;;;5014179;28;20399;-69
2022/06/26 12:08:35;;;;;;;1999.90;999.90;;;21.20;99.90;;;;;;5013947;28;20439;-70
2022/06/26 12:11:01;;;;;;;1999.90;999.90;;;21.20;99.90;;;;;;5014305;28;20411;-70